sensor_id;sensor_type;location;lat;lon;timestamp;temperature;humidity
18974;DHT22;9621;48.690;9.466;2023-08-06T00:01:25;13.50;99.90
18974;DHT22;9621;48.690;9.466;2023-08-06T00:03:52;13.50;99.90
18974;DHT22;9621;48.690;9.466;2023-08-06T00:06:18;13.50;99.90
18974;DHT22;9621;48.690;9.466;2023-08-06T00:08:47;13.50;99.90
18974;DHT22;9621;48.690;9.466;2023-08-06T00:11:14;13.50;99.90
18974;DHT22;9621;48.690;9.466;2023-08-06T00:13:40;13.50;99.90
18974;DHT22;9621;48.690;9.466;2023-08-06T00:16:11;13.40;99.90
18974;DHT22;9621;48.690;9.466;2023-08-06T00:18:38;13.40;99.90
18974;DHT22;9621;48.690;9.466;2023-08-06T00:21:05;13.30;99.90
18974;DHT22;9621;48.690;9.466;2023-08-06T00:23:32;13.30;99.90
18974;DHT22;9621;48.690;9.466;2023-08-06T00:26:01;13.20;99.90
18974;DHT22;9621;48.690;9.466;2023-08-06T00:28:27;13.10;99.90
18974;DHT22;9621;48.690;9.466;2023-08-06T00:30:54;13.10;99.90
18974;DHT22;9621;48.690;9.466;2023-08-06T00:33:22;13.00;99.90
18974;DHT22;9621;48.690;9.466;2023-08-06T00:35:49;12.90;99.90
18974;DHT22;9621;48.690;9.466;2023-08-06T00:38:16;12.90;99.90
18974;DHT22;9621;48.690;9.466;2023-08-06T00:40:43;12.90;99.90
18974;DHT22;9621;48.690;9.466;2023-08-06T00:43:11;12.80;99.90
18974;DHT22;9621;48.690;9.466;2023-08-06T00:45:38;12.70;99.90
18974;DHT22;9621;48.690;9.466;2023-08-06T00:48:05;12.70;99.90
18974;DHT22;9621;48.690;9.466;2023-08-06T00:50:32;12.70;99.90
18974;DHT22;9621;48.690;9.466;2023-08-06T00:53:00;12.60;99.90
18974;DHT22;9621;48.690;9.466;2023-08-06T00:55:27;12.50;99.90
18974;DHT22;9621;48.690;9.466;2023-08-06T00:57:55;12.50;99.90
18974;DHT22;9621;48.690;9.466;2023-08-06T01:00:24;12.50;99.90
18974;DHT22;9621;48.690;9.466;2023-08-06T01:02:51;12.40;99.90
18974;DHT22;9621;48.690;9.466;2023-08-06T01:05:18;12.40;99.90
18974;DHT22;9621;48.690;9.466;2023-08-06T01:07:56;12.50;99.90
18974;DHT22;9621;48.690;9.466;2023-08-06T01:10:37;12.50;99.90
18974;DHT22;9621;48.690;9.466;2023-08-06T01:13:15;12.50;99.90
18974;DHT22;9621;48.690;9.466;2023-08-06T01:15:48;12.60;99.90
18974;DHT22;9621;48.690;9.466;2023-08-06T01:18:16;12.50;99.90
18974;DHT22;9621;48.690;9.466;2023-08-06T01:20:44;12.50;99.90
18974;DHT22;9621;48.690;9.466;2023-08-06T01:23:11;12.60;99.90
18974;DHT22;9621;48.690;9.466;2023-08-06T01:25:46;12.50;99.90
18974;DHT22;9621;48.690;9.466;2023-08-06T01:28:18;12.40;99.90
18974;DHT22;9621;48.690;9.466;2023-08-06T01:30:50;12.30;99.90
18974;DHT22;9621;48.690;9.466;2023-08-06T01:33:21;12.30;99.90
18974;DHT22;9621;48.690;9.466;2023-08-06T01:35:51;12.20;99.90
18974;DHT22;9621;48.690;9.466;2023-08-06T01:38:19;12.20;99.90
18974;DHT22;9621;48.690;9.466;2023-08-06T01:40:46;12.10;99.90
18974;DHT22;9621;48.690;9.466;2023-08-06T01:43:13;12.10;99.90
18974;DHT22;9621;48.690;9.466;2023-08-06T01:45:40;12.10;99.90
18974;DHT22;9621;48.690;9.466;2023-08-06T01:48:06;12.00;99.90
18974;DHT22;9621;48.690;9.466;2023-08-06T01:50:33;12.00;99.90
18974;DHT22;9621;48.690;9.466;2023-08-06T01:53:02;12.00;99.90
18974;DHT22;9621;48.690;9.466;2023-08-06T01:55:29;12.00;99.90
18974;DHT22;9621;48.690;9.466;2023-08-06T01:57:56;12.00;99.90
18974;DHT22;9621;48.690;9.466;2023-08-06T02:00:23;12.00;99.90
18974;DHT22;9621;48.690;9.466;2023-08-06T02:02:49;11.90;99.90
18974;DHT22;9621;48.690;9.466;2023-08-06T02:05:16;11.90;99.90
18974;DHT22;9621;48.690;9.466;2023-08-06T02:07:43;11.90;99.90
18974;DHT22;9621;48.690;9.466;2023-08-06T02:10:11;11.90;99.90
18974;DHT22;9621;48.690;9.466;2023-08-06T02:12:38;11.70;99.90
18974;DHT22;9621;48.690;9.466;2023-08-06T02:15:06;11.70;99.90
18974;DHT22;9621;48.690;9.466;2023-08-06T02:17:33;11.70;99.90
18974;DHT22;9621;48.690;9.466;2023-08-06T02:20:00;11.70;99.90
18974;DHT22;9621;48.690;9.466;2023-08-06T02:22:27;11.60;99.90
18974;DHT22;9621;48.690;9.466;2023-08-06T02:24:54;11.70;99.90
18974;DHT22;9621;48.690;9.466;2023-08-06T02:27:22;11.70;99.90
18974;DHT22;9621;48.690;9.466;2023-08-06T02:29:48;11.70;99.90
18974;DHT22;9621;48.690;9.466;2023-08-06T02:32:15;11.70;99.90
18974;DHT22;9621;48.690;9.466;2023-08-06T02:34:42;11.70;99.90
18974;DHT22;9621;48.690;9.466;2023-08-06T02:37:09;11.70;99.90
18974;DHT22;9621;48.690;9.466;2023-08-06T02:39:36;11.70;99.90
18974;DHT22;9621;48.690;9.466;2023-08-06T02:42:06;11.80;99.90
18974;DHT22;9621;48.690;9.466;2023-08-06T02:44:34;11.70;99.90
18974;DHT22;9621;48.690;9.466;2023-08-06T02:47:01;11.80;99.90
18974;DHT22;9621;48.690;9.466;2023-08-06T02:49:28;11.70;99.90
18974;DHT22;9621;48.690;9.466;2023-08-06T02:51:55;11.70;99.90
18974;DHT22;9621;48.690;9.466;2023-08-06T02:54:22;11.60;99.90
18974;DHT22;9621;48.690;9.466;2023-08-06T02:56:48;11.60;99.90
18974;DHT22;9621;48.690;9.466;2023-08-06T02:59:15;11.60;99.90
18974;DHT22;9621;48.690;9.466;2023-08-06T03:01:43;11.50;99.90
18974;DHT22;9621;48.690;9.466;2023-08-06T03:04:10;11.40;99.90
18974;DHT22;9621;48.690;9.466;2023-08-06T03:06:37;11.40;99.90
18974;DHT22;9621;48.690;9.466;2023-08-06T03:09:04;11.30;99.90
18974;DHT22;9621;48.690;9.466;2023-08-06T03:11:31;11.20;99.90
18974;DHT22;9621;48.690;9.466;2023-08-06T03:13:57;11.20;99.90
18974;DHT22;9621;48.690;9.466;2023-08-06T03:16:24;11.10;99.90
18974;DHT22;9621;48.690;9.466;2023-08-06T03:18:52;11.00;99.90
18974;DHT22;9621;48.690;9.466;2023-08-06T03:21:19;11.00;99.90
18974;DHT22;9621;48.690;9.466;2023-08-06T03:23:47;11.00;99.90
18974;DHT22;9621;48.690;9.466;2023-08-06T03:26:14;10.90;99.90
18974;DHT22;9621;48.690;9.466;2023-08-06T03:28:41;10.90;99.90
18974;DHT22;9621;48.690;9.466;2023-08-06T03:31:08;10.90;99.90
18974;DHT22;9621;48.690;9.466;2023-08-06T03:33:34;10.90;99.90
18974;DHT22;9621;48.690;9.466;2023-08-06T03:36:03;10.90;99.90
18974;DHT22;9621;48.690;9.466;2023-08-06T03:38:30;10.90;99.90
18974;DHT22;9621;48.690;9.466;2023-08-06T03:40:57;10.80;99.90
18974;DHT22;9621;48.690;9.466;2023-08-06T03:43:24;10.80;99.90
18974;DHT22;9621;48.690;9.466;2023-08-06T03:45:50;10.90;99.90
18974;DHT22;9621;48.690;9.466;2023-08-06T03:48:17;10.90;99.90
18974;DHT22;9621;48.690;9.466;2023-08-06T03:50:44;10.90;99.90
18974;DHT22;9621;48.690;9.466;2023-08-06T03:53:12;11.00;99.90
18974;DHT22;9621;48.690;9.466;2023-08-06T03:55:39;10.90;99.90
18974;DHT22;9621;48.690;9.466;2023-08-06T03:58:06;11.00;99.90
18974;DHT22;9621;48.690;9.466;2023-08-06T04:00:33;10.90;99.90
18974;DHT22;9621;48.690;9.466;2023-08-06T04:03:00;11.00;99.90
18974;DHT22;9621;48.690;9.466;2023-08-06T04:05:27;11.00;99.90
18974;DHT22;9621;48.690;9.466;2023-08-06T04:07:53;11.00;99.90
18974;DHT22;9621;48.690;9.466;2023-08-06T04:10:22;11.10;99.90
18974;DHT22;9621;48.690;9.466;2023-08-06T04:12:48;11.10;99.90
18974;DHT22;9621;48.690;9.466;2023-08-06T04:15:15;11.10;99.90
18974;DHT22;9621;48.690;9.466;2023-08-06T04:17:42;11.20;99.90
18974;DHT22;9621;48.690;9.466;2023-08-06T04:20:09;11.20;99.90
18974;DHT22;9621;48.690;9.466;2023-08-06T04:22:36;11.20;99.90
18974;DHT22;9621;48.690;9.466;2023-08-06T04:25:04;11.30;99.90
18974;DHT22;9621;48.690;9.466;2023-08-06T04:27:32;11.30;99.90
18974;DHT22;9621;48.690;9.466;2023-08-06T04:29:59;11.30;99.90
18974;DHT22;9621;48.690;9.466;2023-08-06T04:32:26;11.30;99.90
18974;DHT22;9621;48.690;9.466;2023-08-06T04:34:55;11.40;99.90
18974;DHT22;9621;48.690;9.466;2023-08-06T04:37:22;11.40;99.90
18974;DHT22;9621;48.690;9.466;2023-08-06T04:39:49;11.40;99.90
18974;DHT22;9621;48.690;9.466;2023-08-06T04:42:16;11.40;99.90
18974;DHT22;9621;48.690;9.466;2023-08-06T04:44:44;11.50;99.90
18974;DHT22;9621;48.690;9.466;2023-08-06T04:47:11;11.50;99.90
18974;DHT22;9621;48.690;9.466;2023-08-06T04:49:38;11.50;99.90
18974;DHT22;9621;48.690;9.466;2023-08-06T04:52:05;11.60;99.90
18974;DHT22;9621;48.690;9.466;2023-08-06T04:54:32;11.60;99.90
18974;DHT22;9621;48.690;9.466;2023-08-06T04:56:59;11.60;99.90
18974;DHT22;9621;48.690;9.466;2023-08-06T04:59:26;11.60;99.90
18974;DHT22;9621;48.690;9.466;2023-08-06T05:01:54;11.70;99.90
18974;DHT22;9621;48.690;9.466;2023-08-06T05:04:21;11.80;99.90
18974;DHT22;9621;48.690;9.466;2023-08-06T05:06:48;11.80;99.90
18974;DHT22;9621;48.690;9.466;2023-08-06T05:09:15;11.80;99.90
18974;DHT22;9621;48.690;9.466;2023-08-06T05:11:41;11.90;99.90
18974;DHT22;9621;48.690;9.466;2023-08-06T05:14:08;12.00;99.90
18974;DHT22;9621;48.690;9.466;2023-08-06T05:16:35;12.00;99.90
18974;DHT22;9621;48.690;9.466;2023-08-06T05:19:04;12.10;99.90
18974;DHT22;9621;48.690;9.466;2023-08-06T05:21:30;12.10;99.90
18974;DHT22;9621;48.690;9.466;2023-08-06T05:23:57;12.20;99.90
18974;DHT22;9621;48.690;9.466;2023-08-06T05:26:24;12.30;99.90
18974;DHT22;9621;48.690;9.466;2023-08-06T05:28:51;12.30;99.90
18974;DHT22;9621;48.690;9.466;2023-08-06T05:31:18;12.40;99.90
18974;DHT22;9621;48.690;9.466;2023-08-06T05:33:44;12.40;99.90
18974;DHT22;9621;48.690;9.466;2023-08-06T05:36:13;12.40;99.90
18974;DHT22;9621;48.690;9.466;2023-08-06T05:38:40;12.50;99.90
18974;DHT22;9621;48.690;9.466;2023-08-06T05:41:07;12.50;99.90
18974;DHT22;9621;48.690;9.466;2023-08-06T05:43:33;12.60;99.90
18974;DHT22;9621;48.690;9.466;2023-08-06T05:46:00;12.70;99.90
18974;DHT22;9621;48.690;9.466;2023-08-06T05:48:27;12.90;99.90
18974;DHT22;9621;48.690;9.466;2023-08-06T05:50:54;13.10;99.90
18974;DHT22;9621;48.690;9.466;2023-08-06T05:53:22;13.30;99.90
18974;DHT22;9621;48.690;9.466;2023-08-06T05:55:49;13.40;99.90
18974;DHT22;9621;48.690;9.466;2023-08-06T05:58:16;13.50;99.90
18974;DHT22;9621;48.690;9.466;2023-08-06T06:00:45;13.50;99.90
18974;DHT22;9621;48.690;9.466;2023-08-06T06:03:12;13.60;99.90
18974;DHT22;9621;48.690;9.466;2023-08-06T06:05:39;13.70;99.90
18974;DHT22;9621;48.690;9.466;2023-08-06T06:08:06;13.90;99.90
18974;DHT22;9621;48.690;9.466;2023-08-06T06:10:35;14.00;99.90
18974;DHT22;9621;48.690;9.466;2023-08-06T06:13:02;14.20;99.90
18974;DHT22;9621;48.690;9.466;2023-08-06T06:15:28;14.30;99.90
18974;DHT22;9621;48.690;9.466;2023-08-06T06:17:55;14.40;99.90
18974;DHT22;9621;48.690;9.466;2023-08-06T06:20:22;14.40;99.90
18974;DHT22;9621;48.690;9.466;2023-08-06T06:22:49;14.40;99.90
18974;DHT22;9621;48.690;9.466;2023-08-06T06:25:16;14.30;99.90
18974;DHT22;9621;48.690;9.466;2023-08-06T06:27:44;14.30;99.90
18974;DHT22;9621;48.690;9.466;2023-08-06T06:30:11;14.30;99.90
18974;DHT22;9621;48.690;9.466;2023-08-06T06:32:38;14.20;99.90
18974;DHT22;9621;48.690;9.466;2023-08-06T06:35:08;14.10;99.90
18974;DHT22;9621;48.690;9.466;2023-08-06T06:37:35;14.20;99.90
18974;DHT22;9621;48.690;9.466;2023-08-06T06:40:02;14.10;99.90
18974;DHT22;9621;48.690;9.466;2023-08-06T06:42:29;14.20;99.90
18974;DHT22;9621;48.690;9.466;2023-08-06T06:44:57;14.20;99.90
18974;DHT22;9621;48.690;9.466;2023-08-06T06:47:24;14.30;99.90
18974;DHT22;9621;48.690;9.466;2023-08-06T06:49:51;14.30;99.90
18974;DHT22;9621;48.690;9.466;2023-08-06T06:52:17;14.40;99.90
18974;DHT22;9621;48.690;9.466;2023-08-06T06:54:44;14.40;99.90
18974;DHT22;9621;48.690;9.466;2023-08-06T06:57:11;14.40;99.90
18974;DHT22;9621;48.690;9.466;2023-08-06T06:59:38;14.40;99.90
18974;DHT22;9621;48.690;9.466;2023-08-06T07:02:07;14.40;99.90
18974;DHT22;9621;48.690;9.466;2023-08-06T07:04:33;14.40;99.90
18974;DHT22;9621;48.690;9.466;2023-08-06T07:07:00;14.40;99.90
18974;DHT22;9621;48.690;9.466;2023-08-06T07:09:27;14.60;99.90
18974;DHT22;9621;48.690;9.466;2023-08-06T07:11:54;14.70;99.90
18974;DHT22;9621;48.690;9.466;2023-08-06T07:14:21;14.80;99.90
18974;DHT22;9621;48.690;9.466;2023-08-06T07:16:47;14.90;99.90
18974;DHT22;9621;48.690;9.466;2023-08-06T07:19:16;15.10;99.90
18974;DHT22;9621;48.690;9.466;2023-08-06T07:21:43;15.20;99.90
18974;DHT22;9621;48.690;9.466;2023-08-06T07:24:09;15.30;99.90
18974;DHT22;9621;48.690;9.466;2023-08-06T07:26:37;15.30;99.90
18974;DHT22;9621;48.690;9.466;2023-08-06T07:29:04;15.30;99.90
18974;DHT22;9621;48.690;9.466;2023-08-06T07:31:30;15.20;99.90
18974;DHT22;9621;48.690;9.466;2023-08-06T07:33:57;15.20;99.90
18974;DHT22;9621;48.690;9.466;2023-08-06T07:36:25;15.10;99.90
18974;DHT22;9621;48.690;9.466;2023-08-06T07:38:52;14.90;99.90
18974;DHT22;9621;48.690;9.466;2023-08-06T07:41:21;14.90;99.90
18974;DHT22;9621;48.690;9.466;2023-08-06T07:43:48;14.80;99.90
18974;DHT22;9621;48.690;9.466;2023-08-06T07:46:15;14.70;99.90
18974;DHT22;9621;48.690;9.466;2023-08-06T07:48:42;14.60;99.90
18974;DHT22;9621;48.690;9.466;2023-08-06T07:51:09;14.50;99.90
18974;DHT22;9621;48.690;9.466;2023-08-06T07:53:37;14.40;99.90
18974;DHT22;9621;48.690;9.466;2023-08-06T07:56:04;14.30;99.90
18974;DHT22;9621;48.690;9.466;2023-08-06T07:58:31;14.10;99.90
18974;DHT22;9621;48.690;9.466;2023-08-06T08:00:58;14.00;99.90
18974;DHT22;9621;48.690;9.466;2023-08-06T08:03:24;14.00;99.90
18974;DHT22;9621;48.690;9.466;2023-08-06T08:05:54;14.00;99.90
18974;DHT22;9621;48.690;9.466;2023-08-06T08:08:22;13.90;99.90
18974;DHT22;9621;48.690;9.466;2023-08-06T08:10:51;13.90;99.90
18974;DHT22;9621;48.690;9.466;2023-08-06T08:13:18;13.90;99.90
18974;DHT22;9621;48.690;9.466;2023-08-06T08:15:44;14.00;99.90
18974;DHT22;9621;48.690;9.466;2023-08-06T08:18:11;14.10;99.90
18974;DHT22;9621;48.690;9.466;2023-08-06T08:20:38;14.30;99.90
18974;DHT22;9621;48.690;9.466;2023-08-06T08:23:05;14.50;99.90
18974;DHT22;9621;48.690;9.466;2023-08-06T08:25:32;14.70;99.90
18974;DHT22;9621;48.690;9.466;2023-08-06T08:28:01;15.10;99.90
18974;DHT22;9621;48.690;9.466;2023-08-06T08:30:27;15.50;99.90
18974;DHT22;9621;48.690;9.466;2023-08-06T08:32:54;15.80;99.90
18974;DHT22;9621;48.690;9.466;2023-08-06T08:35:21;16.20;99.90
18974;DHT22;9621;48.690;9.466;2023-08-06T08:37:48;16.50;99.90
18974;DHT22;9621;48.690;9.466;2023-08-06T08:40:16;16.60;99.90
18974;DHT22;9621;48.690;9.466;2023-08-06T08:42:43;16.80;99.90
18974;DHT22;9621;48.690;9.466;2023-08-06T08:45:15;16.80;99.90
18974;DHT22;9621;48.690;9.466;2023-08-06T08:47:42;16.70;99.90
18974;DHT22;9621;48.690;9.466;2023-08-06T08:50:10;16.60;99.90
18974;DHT22;9621;48.690;9.466;2023-08-06T08:52:39;16.40;99.90
18974;DHT22;9621;48.690;9.466;2023-08-06T08:55:05;16.30;99.90
18974;DHT22;9621;48.690;9.466;2023-08-06T08:57:33;16.10;99.90
18974;DHT22;9621;48.690;9.466;2023-08-06T09:00:00;16.00;99.90
18974;DHT22;9621;48.690;9.466;2023-08-06T09:02:28;16.00;99.90
18974;DHT22;9621;48.690;9.466;2023-08-06T09:04:58;15.90;99.90
18974;DHT22;9621;48.690;9.466;2023-08-06T09:07:31;15.90;99.90
18974;DHT22;9621;48.690;9.466;2023-08-06T09:10:01;15.90;99.90
18974;DHT22;9621;48.690;9.466;2023-08-06T09:12:29;15.90;99.90
18974;DHT22;9621;48.690;9.466;2023-08-06T09:14:56;15.90;99.90
18974;DHT22;9621;48.690;9.466;2023-08-06T09:17:23;15.90;99.90
18974;DHT22;9621;48.690;9.466;2023-08-06T09:19:52;15.90;99.90
18974;DHT22;9621;48.690;9.466;2023-08-06T09:22:19;15.90;99.90
18974;DHT22;9621;48.690;9.466;2023-08-06T09:24:46;15.90;99.90
18974;DHT22;9621;48.690;9.466;2023-08-06T09:27:13;15.90;99.90
18974;DHT22;9621;48.690;9.466;2023-08-06T09:29:41;16.10;99.90
18974;DHT22;9621;48.690;9.466;2023-08-06T09:32:09;16.20;99.90
18974;DHT22;9621;48.690;9.466;2023-08-06T09:34:39;16.30;99.90
18974;DHT22;9621;48.690;9.466;2023-08-06T09:37:09;16.40;99.90
18974;DHT22;9621;48.690;9.466;2023-08-06T09:39:38;16.50;99.90
18974;DHT22;9621;48.690;9.466;2023-08-06T09:42:05;16.50;99.90
18974;DHT22;9621;48.690;9.466;2023-08-06T09:44:33;16.60;99.90
18974;DHT22;9621;48.690;9.466;2023-08-06T09:47:01;16.70;99.90
18974;DHT22;9621;48.690;9.466;2023-08-06T09:49:40;16.80;99.90
18974;DHT22;9621;48.690;9.466;2023-08-06T09:52:11;17.00;99.90
18974;DHT22;9621;48.690;9.466;2023-08-06T09:54:38;17.10;99.90
18974;DHT22;9621;48.690;9.466;2023-08-06T09:57:05;17.20;99.90
18974;DHT22;9621;48.690;9.466;2023-08-06T09:59:32;17.30;99.90
18974;DHT22;9621;48.690;9.466;2023-08-06T10:02:00;17.30;99.90
18974;DHT22;9621;48.690;9.466;2023-08-06T10:04:29;17.40;99.90
18974;DHT22;9621;48.690;9.466;2023-08-06T10:06:56;17.40;99.90
18974;DHT22;9621;48.690;9.466;2023-08-06T10:09:26;17.40;99.90
18974;DHT22;9621;48.690;9.466;2023-08-06T10:11:53;17.40;99.90
18974;DHT22;9621;48.690;9.466;2023-08-06T10:14:24;17.30;99.90
18974;DHT22;9621;48.690;9.466;2023-08-06T10:16:52;17.20;99.90
18974;DHT22;9621;48.690;9.466;2023-08-06T10:19:19;17.00;99.90
18974;DHT22;9621;48.690;9.466;2023-08-06T10:22:10;17.00;99.90
18974;DHT22;9621;48.690;9.466;2023-08-06T10:24:52;16.90;99.90
18974;DHT22;9621;48.690;9.466;2023-08-06T10:27:21;17.00;99.90
18974;DHT22;9621;48.690;9.466;2023-08-06T10:29:48;16.90;99.90
18974;DHT22;9621;48.690;9.466;2023-08-06T10:32:15;16.90;99.90
18974;DHT22;9621;48.690;9.466;2023-08-06T10:34:56;16.70;99.90
18974;DHT22;9621;48.690;9.466;2023-08-06T10:37:24;16.40;99.90
18974;DHT22;9621;48.690;9.466;2023-08-06T10:39:53;16.20;99.90
18974;DHT22;9621;48.690;9.466;2023-08-06T10:42:21;15.90;99.90
18974;DHT22;9621;48.690;9.466;2023-08-06T10:45:16;15.60;99.90
18974;DHT22;9621;48.690;9.466;2023-08-06T10:47:43;15.40;99.90
18974;DHT22;9621;48.690;9.466;2023-08-06T10:50:13;15.10;99.90
18974;DHT22;9621;48.690;9.466;2023-08-06T10:52:42;15.00;99.90
18974;DHT22;9621;48.690;9.466;2023-08-06T10:55:10;14.80;99.90
18974;DHT22;9621;48.690;9.466;2023-08-06T10:57:37;14.70;99.90
18974;DHT22;9621;48.690;9.466;2023-08-06T11:00:05;14.70;99.90
18974;DHT22;9621;48.690;9.466;2023-08-06T11:02:34;14.60;99.90
18974;DHT22;9621;48.690;9.466;2023-08-06T11:05:10;14.50;99.90
18974;DHT22;9621;48.690;9.466;2023-08-06T11:07:38;14.50;99.90
18974;DHT22;9621;48.690;9.466;2023-08-06T11:10:07;14.50;99.90
18974;DHT22;9621;48.690;9.466;2023-08-06T11:12:36;14.30;99.90
18974;DHT22;9621;48.690;9.466;2023-08-06T11:15:04;14.40;99.90
18974;DHT22;9621;48.690;9.466;2023-08-06T11:17:34;14.40;99.90
18974;DHT22;9621;48.690;9.466;2023-08-06T11:20:01;14.50;99.90
18974;DHT22;9621;48.690;9.466;2023-08-06T11:22:28;14.50;99.90
18974;DHT22;9621;48.690;9.466;2023-08-06T11:24:55;14.60;99.90
18974;DHT22;9621;48.690;9.466;2023-08-06T11:27:23;14.70;99.90
18974;DHT22;9621;48.690;9.466;2023-08-06T11:29:51;14.80;99.90
18974;DHT22;9621;48.690;9.466;2023-08-06T11:32:18;14.90;99.90
18974;DHT22;9621;48.690;9.466;2023-08-06T11:34:44;14.90;99.90
18974;DHT22;9621;48.690;9.466;2023-08-06T11:37:11;14.80;99.90
18974;DHT22;9621;48.690;9.466;2023-08-06T11:39:39;14.80;99.90
18974;DHT22;9621;48.690;9.466;2023-08-06T11:42:12;14.70;99.90
18974;DHT22;9621;48.690;9.466;2023-08-06T11:44:41;14.60;99.90
18974;DHT22;9621;48.690;9.466;2023-08-06T11:47:13;14.50;99.90
18974;DHT22;9621;48.690;9.466;2023-08-06T11:49:42;14.40;99.90
18974;DHT22;9621;48.690;9.466;2023-08-06T11:52:13;14.30;99.90
18974;DHT22;9621;48.690;9.466;2023-08-06T11:54:40;14.30;99.90
18974;DHT22;9621;48.690;9.466;2023-08-06T11:57:08;14.30;99.90
18974;DHT22;9621;48.690;9.466;2023-08-06T11:59:35;14.30;99.90
18974;DHT22;9621;48.690;9.466;2023-08-06T12:02:03;14.30;99.90
18974;DHT22;9621;48.690;9.466;2023-08-06T12:04:57;14.40;99.90
18974;DHT22;9621;48.690;9.466;2023-08-06T12:07:28;14.50;99.90
18974;DHT22;9621;48.690;9.466;2023-08-06T12:09:55;14.50;99.90
18974;DHT22;9621;48.690;9.466;2023-08-06T12:12:22;14.60;99.90
18974;DHT22;9621;48.690;9.466;2023-08-06T12:14:49;14.70;99.90
18974;DHT22;9621;48.690;9.466;2023-08-06T12:17:16;14.70;99.90
18974;DHT22;9621;48.690;9.466;2023-08-06T12:19:45;14.70;99.90
18974;DHT22;9621;48.690;9.466;2023-08-06T12:22:13;14.70;99.90
18974;DHT22;9621;48.690;9.466;2023-08-06T12:24:40;14.70;99.90
18974;DHT22;9621;48.690;9.466;2023-08-06T12:27:07;14.60;99.90
18974;DHT22;9621;48.690;9.466;2023-08-06T12:29:34;14.60;99.90
18974;DHT22;9621;48.690;9.466;2023-08-06T12:32:04;14.60;99.90
18974;DHT22;9621;48.690;9.466;2023-08-06T12:34:31;14.50;99.90
18974;DHT22;9621;48.690;9.466;2023-08-06T12:37:02;14.50;99.90
18974;DHT22;9621;48.690;9.466;2023-08-06T12:39:29;14.50;99.90
18974;DHT22;9621;48.690;9.466;2023-08-06T12:41:57;14.40;99.90
18974;DHT22;9621;48.690;9.466;2023-08-06T12:44:23;14.40;99.90
18974;DHT22;9621;48.690;9.466;2023-08-06T12:46:51;14.40;99.90
18974;DHT22;9621;48.690;9.466;2023-08-06T12:49:18;14.30;99.90
18974;DHT22;9621;48.690;9.466;2023-08-06T12:51:46;14.30;99.90
18974;DHT22;9621;48.690;9.466;2023-08-06T12:54:15;14.20;99.90
18974;DHT22;9621;48.690;9.466;2023-08-06T12:56:42;14.20;99.90
18974;DHT22;9621;48.690;9.466;2023-08-06T12:59:09;14.30;99.90
18974;DHT22;9621;48.690;9.466;2023-08-06T13:01:38;14.30;99.90
18974;DHT22;9621;48.690;9.466;2023-08-06T13:04:05;14.30;99.90
18974;DHT22;9621;48.690;9.466;2023-08-06T13:06:35;14.40;99.90
18974;DHT22;9621;48.690;9.466;2023-08-06T13:09:05;14.50;99.90
18974;DHT22;9621;48.690;9.466;2023-08-06T13:11:35;14.60;99.90
18974;DHT22;9621;48.690;9.466;2023-08-06T13:14:07;14.70;99.90
18974;DHT22;9621;48.690;9.466;2023-08-06T13:16:38;14.80;99.90
18974;DHT22;9621;48.690;9.466;2023-08-06T13:19:07;14.90;99.90
18974;DHT22;9621;48.690;9.466;2023-08-06T13:21:35;15.00;99.90
18974;DHT22;9621;48.690;9.466;2023-08-06T13:24:03;15.00;99.90
18974;DHT22;9621;48.690;9.466;2023-08-06T13:26:30;15.10;99.90
18974;DHT22;9621;48.690;9.466;2023-08-06T13:28:59;15.20;99.90
18974;DHT22;9621;48.690;9.466;2023-08-06T13:31:27;15.30;99.90
18974;DHT22;9621;48.690;9.466;2023-08-06T13:33:54;15.30;99.90
18974;DHT22;9621;48.690;9.466;2023-08-06T13:36:23;15.40;99.90
18974;DHT22;9621;48.690;9.466;2023-08-06T13:38:50;15.50;99.90
18974;DHT22;9621;48.690;9.466;2023-08-06T13:41:17;15.70;99.90
18974;DHT22;9621;48.690;9.466;2023-08-06T13:43:44;15.80;99.90
18974;DHT22;9621;48.690;9.466;2023-08-06T13:46:13;15.90;99.90
18974;DHT22;9621;48.690;9.466;2023-08-06T13:48:42;16.00;99.90
18974;DHT22;9621;48.690;9.466;2023-08-06T13:51:09;16.10;99.90
18974;DHT22;9621;48.690;9.466;2023-08-06T13:53:36;16.00;99.90
18974;DHT22;9621;48.690;9.466;2023-08-06T13:56:04;16.00;99.90
18974;DHT22;9621;48.690;9.466;2023-08-06T13:58:31;16.00;99.90
18974;DHT22;9621;48.690;9.466;2023-08-06T14:00:58;15.90;99.90
18974;DHT22;9621;48.690;9.466;2023-08-06T14:03:26;15.90;99.90
18974;DHT22;9621;48.690;9.466;2023-08-06T14:05:53;15.90;99.90
18974;DHT22;9621;48.690;9.466;2023-08-06T14:08:22;15.80;99.90
18974;DHT22;9621;48.690;9.466;2023-08-06T14:10:49;15.80;99.90
18974;DHT22;9621;48.690;9.466;2023-08-06T14:13:16;15.80;99.90
18974;DHT22;9621;48.690;9.466;2023-08-06T14:15:43;15.80;99.90
18974;DHT22;9621;48.690;9.466;2023-08-06T14:18:12;15.90;99.90
18974;DHT22;9621;48.690;9.466;2023-08-06T14:20:40;15.90;99.90
18974;DHT22;9621;48.690;9.466;2023-08-06T14:23:07;16.00;99.90
18974;DHT22;9621;48.690;9.466;2023-08-06T14:25:34;16.00;99.90
18974;DHT22;9621;48.690;9.466;2023-08-06T14:28:01;16.00;99.90
18974;DHT22;9621;48.690;9.466;2023-08-06T14:30:28;16.00;99.90
18974;DHT22;9621;48.690;9.466;2023-08-06T14:32:55;15.90;99.90
18974;DHT22;9621;48.690;9.466;2023-08-06T14:35:22;15.90;99.90
18974;DHT22;9621;48.690;9.466;2023-08-06T14:37:51;15.90;99.90
18974;DHT22;9621;48.690;9.466;2023-08-06T14:40:18;15.80;99.90
18974;DHT22;9621;48.690;9.466;2023-08-06T14:42:45;15.80;99.90
18974;DHT22;9621;48.690;9.466;2023-08-06T14:45:13;15.80;99.90
18974;DHT22;9621;48.690;9.466;2023-08-06T14:47:40;15.80;99.90
18974;DHT22;9621;48.690;9.466;2023-08-06T14:50:07;15.80;99.90
18974;DHT22;9621;48.690;9.466;2023-08-06T14:52:34;15.80;99.90
18974;DHT22;9621;48.690;9.466;2023-08-06T14:55:03;15.80;99.90
18974;DHT22;9621;48.690;9.466;2023-08-06T14:57:30;15.80;99.90
18974;DHT22;9621;48.690;9.466;2023-08-06T14:59:57;15.80;99.90
18974;DHT22;9621;48.690;9.466;2023-08-06T15:02:25;15.70;99.90
18974;DHT22;9621;48.690;9.466;2023-08-06T15:04:52;15.70;99.90
18974;DHT22;9621;48.690;9.466;2023-08-06T15:07:19;15.60;99.90
18974;DHT22;9621;48.690;9.466;2023-08-06T15:09:45;15.50;99.90
18974;DHT22;9621;48.690;9.466;2023-08-06T15:12:14;15.50;99.90
18974;DHT22;9621;48.690;9.466;2023-08-06T15:14:42;15.30;99.90
18974;DHT22;9621;48.690;9.466;2023-08-06T15:17:09;15.30;99.90
18974;DHT22;9621;48.690;9.466;2023-08-06T15:19:36;15.30;99.90
18974;DHT22;9621;48.690;9.466;2023-08-06T15:22:03;15.10;99.90
18974;DHT22;9621;48.690;9.466;2023-08-06T15:24:30;15.10;99.90
18974;DHT22;9621;48.690;9.466;2023-08-06T15:26:57;15.00;99.90
18974;DHT22;9621;48.690;9.466;2023-08-06T15:29:25;15.00;99.90
18974;DHT22;9621;48.690;9.466;2023-08-06T15:31:52;14.90;99.90
18974;DHT22;9621;48.690;9.466;2023-08-06T15:34:19;15.00;99.90
18974;DHT22;9621;48.690;9.466;2023-08-06T15:36:46;15.00;99.90
18974;DHT22;9621;48.690;9.466;2023-08-06T15:39:13;15.00;99.90
18974;DHT22;9621;48.690;9.466;2023-08-06T15:41:40;15.20;99.90
18974;DHT22;9621;48.690;9.466;2023-08-06T15:44:07;15.20;99.90
18974;DHT22;9621;48.690;9.466;2023-08-06T15:46:35;15.30;99.90
18974;DHT22;9621;48.690;9.466;2023-08-06T15:49:02;15.30;99.90